sensor_id;sensor_type;location;lat;lon;timestamp;P1;durP1;ratioP1;P2;durP2;ratioP2
65853;SDS011;52627;48.838;2.402;2022-10-17T00:00:59;9.10;;;5.10;;
65853;SDS011;52627;48.838;2.402;2022-10-17T00:03:26;9.50;;;5.10;;
65853;SDS011;52627;48.838;2.402;2022-10-17T00:05:54;11.50;;;5.10;;
65853;SDS011;52627;48.838;2.402;2022-10-17T00:08:21;11.00;;;5.90;;
65853;SDS011;52627;48.838;2.402;2022-10-17T00:11:01;8.00;;;4.80;;
65853;SDS011;52627;48.838;2.402;2022-10-17T00:13:31;9.50;;;4.90;;
65853;SDS011;52627;48.838;2.402;2022-10-17T00:16:05;8.30;;;4.60;;
65853;SDS011;52627;48.838;2.402;2022-10-17T00:18:33;8.90;;;5.10;;
65853;SDS011;52627;48.838;2.402;2022-10-17T00:21:00;9.40;;;5.10;;
65853;SDS011;52627;48.838;2.402;2022-10-17T00:23:28;9.20;;;5.10;;
65853;SDS011;52627;48.838;2.402;2022-10-17T00:26:01;7.20;;;4.70;;
65853;SDS011;52627;48.838;2.402;2022-10-17T00:28:31;8.20;;;4.70;;
65853;SDS011;52627;48.838;2.402;2022-10-17T00:31:01;7.60;;;4.90;;
65853;SDS011;52627;48.838;2.402;2022-10-17T00:33:30;6.90;;;4.40;;
65853;SDS011;52627;48.838;2.402;2022-10-17T00:36:08;11.00;;;4.70;;
65853;SDS011;52627;48.838;2.402;2022-10-17T00:38:41;9.20;;;5.40;;
65853;SDS011;52627;48.838;2.402;2022-10-17T00:41:12;8.60;;;5.00;;
65853;SDS011;52627;48.838;2.402;2022-10-17T00:43:51;10.00;;;5.70;;
65853;SDS011;52627;48.838;2.402;2022-10-17T00:46:34;7.30;;;4.50;;
65853;SDS011;52627;48.838;2.402;2022-10-17T00:49:12;6.50;;;4.60;;
65853;SDS011;52627;48.838;2.402;2022-10-17T00:51:46;6.70;;;4.40;;
65853;SDS011;52627;48.838;2.402;2022-10-17T00:54:16;7.20;;;4.00;;
65853;SDS011;52627;48.838;2.402;2022-10-17T00:56:46;8.50;;;4.60;;
65853;SDS011;52627;48.838;2.402;2022-10-17T00:59:15;8.00;;;4.70;;
65853;SDS011;52627;48.838;2.402;2022-10-17T01:01:55;7.20;;;4.80;;
65853;SDS011;52627;48.838;2.402;2022-10-17T01:04:26;13.10;;;5.40;;
65853;SDS011;52627;48.838;2.402;2022-10-17T01:06:53;9.20;;;4.60;;
65853;SDS011;52627;48.838;2.402;2022-10-17T01:09:21;6.80;;;4.50;;
65853;SDS011;52627;48.838;2.402;2022-10-17T01:17:25;6.70;;;4.40;;
65853;SDS011;52627;48.838;2.402;2022-10-17T01:25:56;7.30;;;4.10;;
65853;SDS011;52627;48.838;2.402;2022-10-17T01:31:54;7.40;;;3.70;;
65853;SDS011;52627;48.838;2.402;2022-10-17T01:37:07;9.40;;;5.00;;
65853;SDS011;52627;48.838;2.402;2022-10-17T01:39:46;7.80;;;4.10;;
65853;SDS011;52627;48.838;2.402;2022-10-17T01:45:01;7.70;;;3.70;;
65853;SDS011;52627;48.838;2.402;2022-10-17T01:47:33;8.40;;;4.30;;
65853;SDS011;52627;48.838;2.402;2022-10-17T01:50:10;9.20;;;3.80;;
65853;SDS011;52627;48.838;2.402;2022-10-17T01:52:46;6.90;;;4.30;;
65853;SDS011;52627;48.838;2.402;2022-10-17T01:55:24;7.60;;;4.00;;
65853;SDS011;52627;48.838;2.402;2022-10-17T01:58:00;5.90;;;4.00;;
65853;SDS011;52627;48.838;2.402;2022-10-17T02:00:37;6.80;;;4.40;;
65853;SDS011;52627;48.838;2.402;2022-10-17T02:03:09;9.30;;;4.00;;
65853;SDS011;52627;48.838;2.402;2022-10-17T02:05:41;6.80;;;4.00;;
65853;SDS011;52627;48.838;2.402;2022-10-17T02:08:10;5.80;;;4.00;;
65853;SDS011;52627;48.838;2.402;2022-10-17T02:10:41;7.30;;;4.00;;
65853;SDS011;52627;48.838;2.402;2022-10-17T02:22:34;11.90;;;3.80;;
65853;SDS011;52627;48.838;2.402;2022-10-17T02:25:13;7.40;;;3.50;;
65853;SDS011;52627;48.838;2.402;2022-10-17T02:30:45;5.80;;;4.00;;
65853;SDS011;52627;48.838;2.402;2022-10-17T02:36:02;7.90;;;3.90;;
65853;SDS011;52627;48.838;2.402;2022-10-17T02:38:33;6.20;;;4.30;;
65853;SDS011;52627;48.838;2.402;2022-10-17T02:41:02;6.60;;;3.70;;
65853;SDS011;52627;48.838;2.402;2022-10-17T02:43:33;6.70;;;4.10;;
65853;SDS011;52627;48.838;2.402;2022-10-17T02:46:03;8.20;;;4.60;;
65853;SDS011;52627;48.838;2.402;2022-10-17T02:48:37;6.20;;;4.00;;
65853;SDS011;52627;48.838;2.402;2022-10-17T02:56:55;5.80;;;4.10;;
65853;SDS011;52627;48.838;2.402;2022-10-17T02:59:28;7.70;;;4.20;;
65853;SDS011;52627;48.838;2.402;2022-10-17T03:01:56;6.90;;;3.70;;
65853;SDS011;52627;48.838;2.402;2022-10-17T03:04:24;7.50;;;4.10;;
65853;SDS011;52627;48.838;2.402;2022-10-17T03:06:51;7.60;;;4.10;;
65853;SDS011;52627;48.838;2.402;2022-10-17T03:09:19;5.90;;;3.20;;
65853;SDS011;52627;48.838;2.402;2022-10-17T03:11:46;8.60;;;3.90;;
65853;SDS011;52627;48.838;2.402;2022-10-17T03:14:13;7.70;;;4.30;;
65853;SDS011;52627;48.838;2.402;2022-10-17T03:16:41;6.60;;;3.70;;
65853;SDS011;52627;48.838;2.402;2022-10-17T03:19:08;7.00;;;3.70;;
65853;SDS011;52627;48.838;2.402;2022-10-17T03:21:35;7.20;;;3.90;;
65853;SDS011;52627;48.838;2.402;2022-10-17T03:24:04;6.60;;;3.80;;
65853;SDS011;52627;48.838;2.402;2022-10-17T03:26:31;8.00;;;3.70;;
65853;SDS011;52627;48.838;2.402;2022-10-17T03:28:59;6.30;;;3.50;;
65853;SDS011;52627;48.838;2.402;2022-10-17T03:31:26;7.80;;;3.50;;
65853;SDS011;52627;48.838;2.402;2022-10-17T03:33:54;7.70;;;3.30;;
65853;SDS011;52627;48.838;2.402;2022-10-17T03:36:21;7.70;;;3.80;;
65853;SDS011;52627;48.838;2.402;2022-10-17T03:38:52;6.60;;;3.20;;
65853;SDS011;52627;48.838;2.402;2022-10-17T03:41:20;8.40;;;3.60;;
65853;SDS011;52627;48.838;2.402;2022-10-17T03:43:48;8.80;;;3.20;;
65853;SDS011;52627;48.838;2.402;2022-10-17T03:46:15;8.50;;;4.50;;
65853;SDS011;52627;48.838;2.402;2022-10-17T03:48:43;8.80;;;3.50;;
65853;SDS011;52627;48.838;2.402;2022-10-17T03:51:11;6.50;;;3.20;;
65853;SDS011;52627;48.838;2.402;2022-10-17T03:53:39;7.00;;;3.30;;
65853;SDS011;52627;48.838;2.402;2022-10-17T03:56:18;6.90;;;3.40;;
65853;SDS011;52627;48.838;2.402;2022-10-17T03:58:47;14.60;;;3.70;;
65853;SDS011;52627;48.838;2.402;2022-10-17T04:01:16;6.50;;;4.00;;
65853;SDS011;52627;48.838;2.402;2022-10-17T04:03:48;6.60;;;3.60;;
65853;SDS011;52627;48.838;2.402;2022-10-17T04:06:21;6.60;;;3.50;;
65853;SDS011;52627;48.838;2.402;2022-10-17T04:08:49;8.10;;;3.40;;
65853;SDS011;52627;48.838;2.402;2022-10-17T04:11:18;6.60;;;3.40;;
65853;SDS011;52627;48.838;2.402;2022-10-17T04:13:52;5.70;;;3.40;;
65853;SDS011;52627;48.838;2.402;2022-10-17T04:16:23;6.10;;;3.50;;
65853;SDS011;52627;48.838;2.402;2022-10-17T04:18:56;8.60;;;3.90;;
65853;SDS011;52627;48.838;2.402;2022-10-17T04:21:26;7.70;;;3.50;;
65853;SDS011;52627;48.838;2.402;2022-10-17T04:23:59;8.80;;;3.40;;
65853;SDS011;52627;48.838;2.402;2022-10-17T04:26:26;6.70;;;3.30;;
65853;SDS011;52627;48.838;2.402;2022-10-17T04:28:54;6.10;;;3.70;;
65853;SDS011;52627;48.838;2.402;2022-10-17T04:31:21;6.30;;;3.10;;
65853;SDS011;52627;48.838;2.402;2022-10-17T04:33:49;9.50;;;3.80;;
65853;SDS011;52627;48.838;2.402;2022-10-17T04:36:18;9.70;;;3.60;;
65853;SDS011;52627;48.838;2.402;2022-10-17T04:38:46;4.60;;;3.20;;
65853;SDS011;52627;48.838;2.402;2022-10-17T04:41:15;7.20;;;3.50;;
65853;SDS011;52627;48.838;2.402;2022-10-17T04:43:44;8.30;;;3.50;;
65853;SDS011;52627;48.838;2.402;2022-10-17T04:46:17;7.10;;;4.10;;
65853;SDS011;52627;48.838;2.402;2022-10-17T04:48:44;7.00;;;3.10;;
65853;SDS011;52627;48.838;2.402;2022-10-17T04:51:13;7.50;;;3.90;;
65853;SDS011;52627;48.838;2.402;2022-10-17T04:53:43;7.30;;;3.30;;
65853;SDS011;52627;48.838;2.402;2022-10-17T04:56:19;6.50;;;3.50;;
65853;SDS011;52627;48.838;2.402;2022-10-17T04:58:48;8.60;;;3.30;;
65853;SDS011;52627;48.838;2.402;2022-10-17T05:01:18;7.30;;;3.50;;
65853;SDS011;52627;48.838;2.402;2022-10-17T05:03:46;7.60;;;3.20;;
65853;SDS011;52627;48.838;2.402;2022-10-17T05:06:17;7.00;;;3.70;;
65853;SDS011;52627;48.838;2.402;2022-10-17T05:08:47;6.90;;;3.50;;
65853;SDS011;52627;48.838;2.402;2022-10-17T05:11:17;6.20;;;3.60;;
65853;SDS011;52627;48.838;2.402;2022-10-17T05:13:59;7.90;;;3.90;;
65853;SDS011;52627;48.838;2.402;2022-10-17T05:16:28;7.40;;;3.40;;
65853;SDS011;52627;48.838;2.402;2022-10-17T05:18:57;6.90;;;3.40;;
65853;SDS011;52627;48.838;2.402;2022-10-17T05:21:25;9.50;;;3.60;;
65853;SDS011;52627;48.838;2.402;2022-10-17T05:23:54;7.60;;;3.70;;
65853;SDS011;52627;48.838;2.402;2022-10-17T05:26:22;6.30;;;3.20;;
65853;SDS011;52627;48.838;2.402;2022-10-17T05:28:50;7.00;;;3.50;;
65853;SDS011;52627;48.838;2.402;2022-10-17T05:31:18;9.70;;;3.40;;
65853;SDS011;52627;48.838;2.402;2022-10-17T05:33:46;6.60;;;3.70;;
65853;SDS011;52627;48.838;2.402;2022-10-17T05:36:14;7.00;;;3.60;;
65853;SDS011;52627;48.838;2.402;2022-10-17T05:38:41;9.20;;;3.30;;
65853;SDS011;52627;48.838;2.402;2022-10-17T05:41:09;8.00;;;3.70;;
65853;SDS011;52627;48.838;2.402;2022-10-17T05:43:36;6.90;;;3.60;;
65853;SDS011;52627;48.838;2.402;2022-10-17T05:46:04;8.80;;;3.80;;
65853;SDS011;52627;48.838;2.402;2022-10-17T05:48:33;6.90;;;3.50;;
65853;SDS011;52627;48.838;2.402;2022-10-17T05:51:04;5.80;;;3.20;;
65853;SDS011;52627;48.838;2.402;2022-10-17T05:53:36;10.60;;;4.30;;
65853;SDS011;52627;48.838;2.402;2022-10-17T05:56:06;5.80;;;3.80;;
65853;SDS011;52627;48.838;2.402;2022-10-17T05:58:39;7.40;;;4.10;;
65853;SDS011;52627;48.838;2.402;2022-10-17T06:03:54;10.00;;;3.80;;
65853;SDS011;52627;48.838;2.402;2022-10-17T06:06:22;8.30;;;4.00;;
65853;SDS011;52627;48.838;2.402;2022-10-17T06:08:49;7.80;;;3.80;;
65853;SDS011;52627;48.838;2.402;2022-10-17T06:11:16;8.10;;;3.80;;
65853;SDS011;52627;48.838;2.402;2022-10-17T06:13:44;10.60;;;4.00;;
65853;SDS011;52627;48.838;2.402;2022-10-17T06:16:11;5.60;;;3.80;;
65853;SDS011;52627;48.838;2.402;2022-10-17T06:18:39;8.40;;;3.90;;
65853;SDS011;52627;48.838;2.402;2022-10-17T06:21:08;9.20;;;4.10;;
65853;SDS011;52627;48.838;2.402;2022-10-17T06:23:37;8.80;;;3.90;;
65853;SDS011;52627;48.838;2.402;2022-10-17T06:26:05;8.20;;;3.80;;
65853;SDS011;52627;48.838;2.402;2022-10-17T06:28:33;7.60;;;4.40;;
65853;SDS011;52627;48.838;2.402;2022-10-17T06:31:09;5.80;;;3.80;;
65853;SDS011;52627;48.838;2.402;2022-10-17T06:33:38;9.50;;;4.00;;
65853;SDS011;52627;48.838;2.402;2022-10-17T06:36:06;6.40;;;3.90;;
65853;SDS011;52627;48.838;2.402;2022-10-17T06:38:36;9.70;;;4.60;;
65853;SDS011;52627;48.838;2.402;2022-10-17T06:41:10;10.00;;;3.90;;
65853;SDS011;52627;48.838;2.402;2022-10-17T06:43:41;9.20;;;4.20;;
65853;SDS011;52627;48.838;2.402;2022-10-17T06:46:14;8.30;;;4.10;;
65853;SDS011;52627;48.838;2.402;2022-10-17T06:48:43;10.30;;;4.40;;
65853;SDS011;52627;48.838;2.402;2022-10-17T06:51:11;8.00;;;4.20;;
65853;SDS011;52627;48.838;2.402;2022-10-17T06:53:39;12.50;;;5.20;;
65853;SDS011;52627;48.838;2.402;2022-10-17T06:56:08;9.00;;;4.00;;
65853;SDS011;52627;48.838;2.402;2022-10-17T06:58:38;6.60;;;4.00;;
65853;SDS011;52627;48.838;2.402;2022-10-17T07:01:08;12.20;;;4.70;;
65853;SDS011;52627;48.838;2.402;2022-10-17T07:03:37;15.30;;;7.70;;
65853;SDS011;52627;48.838;2.402;2022-10-17T07:06:04;39.90;;;18.40;;
65853;SDS011;52627;48.838;2.402;2022-10-17T07:08:32;24.60;;;12.00;;
65853;SDS011;52627;48.838;2.402;2022-10-17T07:11:08;29.20;;;12.60;;
65853;SDS011;52627;48.838;2.402;2022-10-17T07:13:39;21.90;;;12.30;;
65853;SDS011;52627;48.838;2.402;2022-10-17T07:16:07;20.10;;;10.90;;
65853;SDS011;52627;48.838;2.402;2022-10-17T07:18:35;20.90;;;10.90;;
65853;SDS011;52627;48.838;2.402;2022-10-17T07:21:03;27.70;;;12.60;;
65853;SDS011;52627;48.838;2.402;2022-10-17T07:23:31;25.10;;;12.70;;
65853;SDS011;52627;48.838;2.402;2022-10-17T07:28:36;20.70;;;10.20;;
65853;SDS011;52627;48.838;2.402;2022-10-17T07:31:08;25.00;;;12.50;;
65853;SDS011;52627;48.838;2.402;2022-10-17T07:33:42;17.80;;;10.20;;
65853;SDS011;52627;48.838;2.402;2022-10-17T07:36:10;14.40;;;8.80;;
65853;SDS011;52627;48.838;2.402;2022-10-17T07:38:38;15.30;;;9.30;;
65853;SDS011;52627;48.838;2.402;2022-10-17T07:41:07;12.70;;;6.50;;
65853;SDS011;52627;48.838;2.402;2022-10-17T07:43:35;12.40;;;5.20;;
65853;SDS011;52627;48.838;2.402;2022-10-17T07:46:04;8.60;;;4.90;;
65853;SDS011;52627;48.838;2.402;2022-10-17T07:48:32;8.50;;;4.00;;
65853;SDS011;52627;48.838;2.402;2022-10-17T07:51:05;10.10;;;4.10;;
65853;SDS011;52627;48.838;2.402;2022-10-17T07:53:35;7.00;;;4.00;;
65853;SDS011;52627;48.838;2.402;2022-10-17T07:56:05;8.90;;;3.90;;
65853;SDS011;52627;48.838;2.402;2022-10-17T07:58:34;9.30;;;4.10;;
65853;SDS011;52627;48.838;2.402;2022-10-17T08:01:05;10.60;;;4.00;;
65853;SDS011;52627;48.838;2.402;2022-10-17T08:03:42;6.10;;;3.60;;
65853;SDS011;52627;48.838;2.402;2022-10-17T08:06:11;7.30;;;3.80;;
65853;SDS011;52627;48.838;2.402;2022-10-17T08:08:39;6.00;;;3.50;;
65853;SDS011;52627;48.838;2.402;2022-10-17T08:11:10;7.30;;;3.70;;
65853;SDS011;52627;48.838;2.402;2022-10-17T08:13:39;7.60;;;4.20;;
65853;SDS011;52627;48.838;2.402;2022-10-17T08:16:10;9.40;;;4.30;;
65853;SDS011;52627;48.838;2.402;2022-10-17T08:18:40;9.00;;;3.80;;
65853;SDS011;52627;48.838;2.402;2022-10-17T08:21:09;10.80;;;3.80;;
65853;SDS011;52627;48.838;2.402;2022-10-17T08:23:37;11.30;;;4.00;;
65853;SDS011;52627;48.838;2.402;2022-10-17T08:26:06;7.60;;;3.70;;
65853;SDS011;52627;48.838;2.402;2022-10-17T08:28:38;8.70;;;4.20;;
65853;SDS011;52627;48.838;2.402;2022-10-17T08:31:16;9.50;;;3.60;;
65853;SDS011;52627;48.838;2.402;2022-10-17T08:33:46;9.90;;;3.80;;
65853;SDS011;52627;48.838;2.402;2022-10-17T08:36:16;7.90;;;3.60;;
65853;SDS011;52627;48.838;2.402;2022-10-17T08:38:45;7.50;;;3.20;;
65853;SDS011;52627;48.838;2.402;2022-10-17T08:41:47;8.70;;;4.00;;
65853;SDS011;52627;48.838;2.402;2022-10-17T08:47:18;9.40;;;4.30;;
65853;SDS011;52627;48.838;2.402;2022-10-17T08:49:53;6.40;;;3.80;;
65853;SDS011;52627;48.838;2.402;2022-10-17T08:52:32;9.20;;;3.90;;
65853;SDS011;52627;48.838;2.402;2022-10-17T08:55:12;11.90;;;4.00;;
65853;SDS011;52627;48.838;2.402;2022-10-17T08:57:43;9.00;;;3.90;;
65853;SDS011;52627;48.838;2.402;2022-10-17T09:00:16;8.30;;;3.70;;
65853;SDS011;52627;48.838;2.402;2022-10-17T09:06:09;9.80;;;4.30;;
65853;SDS011;52627;48.838;2.402;2022-10-17T09:09:09;8.40;;;4.10;;
65853;SDS011;52627;48.838;2.402;2022-10-17T09:17:52;10.40;;;4.40;;
65853;SDS011;52627;48.838;2.402;2022-10-17T09:20:25;10.20;;;4.50;;
65853;SDS011;52627;48.838;2.402;2022-10-17T09:22:55;10.30;;;4.80;;
65853;SDS011;52627;48.838;2.402;2022-10-17T09:25:41;13.10;;;4.50;;
65853;SDS011;52627;48.838;2.402;2022-10-17T09:31:21;9.60;;;4.70;;
65853;SDS011;52627;48.838;2.402;2022-10-17T09:33:53;8.80;;;4.30;;
65853;SDS011;52627;48.838;2.402;2022-10-17T09:36:32;10.20;;;4.20;;
65853;SDS011;52627;48.838;2.402;2022-10-17T09:39:03;10.00;;;4.00;;
65853;SDS011;52627;48.838;2.402;2022-10-17T09:41:35;11.80;;;5.60;;
65853;SDS011;52627;48.838;2.402;2022-10-17T09:44:21;11.40;;;5.00;;
65853;SDS011;52627;48.838;2.402;2022-10-17T09:49:43;11.30;;;4.90;;
65853;SDS011;52627;48.838;2.402;2022-10-17T09:52:29;10.00;;;5.00;;
65853;SDS011;52627;48.838;2.402;2022-10-17T09:55:14;9.30;;;5.00;;
65853;SDS011;52627;48.838;2.402;2022-10-17T09:58:02;13.20;;;5.10;;
65853;SDS011;52627;48.838;2.402;2022-10-17T10:00:40;10.80;;;5.20;;
65853;SDS011;52627;48.838;2.402;2022-10-17T10:03:18;12.00;;;5.20;;
65853;SDS011;52627;48.838;2.402;2022-10-17T10:06:03;8.30;;;5.10;;
65853;SDS011;52627;48.838;2.402;2022-10-17T10:08:46;8.10;;;5.30;;
65853;SDS011;52627;48.838;2.402;2022-10-17T10:11:24;9.40;;;6.20;;
65853;SDS011;52627;48.838;2.402;2022-10-17T10:13:53;9.90;;;5.40;;
65853;SDS011;52627;48.838;2.402;2022-10-17T10:16:29;11.70;;;5.80;;
65853;SDS011;52627;48.838;2.402;2022-10-17T10:18:57;10.70;;;5.80;;
65853;SDS011;52627;48.838;2.402;2022-10-17T10:21:26;10.90;;;6.00;;
65853;SDS011;52627;48.838;2.402;2022-10-17T10:26:46;11.20;;;5.80;;
65853;SDS011;52627;48.838;2.402;2022-10-17T10:29:21;11.30;;;6.40;;
65853;SDS011;52627;48.838;2.402;2022-10-17T10:31:52;12.10;;;5.90;;
65853;SDS011;52627;48.838;2.402;2022-10-17T10:36:55;11.40;;;6.30;;
65853;SDS011;52627;48.838;2.402;2022-10-17T10:42:05;14.10;;;6.00;;
65853;SDS011;52627;48.838;2.402;2022-10-17T10:44:36;10.40;;;6.10;;
65853;SDS011;52627;48.838;2.402;2022-10-17T10:47:17;10.90;;;6.20;;
65853;SDS011;52627;48.838;2.402;2022-10-17T10:49:50;14.60;;;6.10;;
65853;SDS011;52627;48.838;2.402;2022-10-17T10:52:54;11.70;;;5.20;;
65853;SDS011;52627;48.838;2.402;2022-10-17T10:55:33;10.10;;;5.80;;
65853;SDS011;52627;48.838;2.402;2022-10-17T11:01:03;13.60;;;6.20;;
65853;SDS011;52627;48.838;2.402;2022-10-17T11:07:13;10.00;;;5.30;;
65853;SDS011;52627;48.838;2.402;2022-10-17T11:12:23;12.20;;;6.60;;
65853;SDS011;52627;48.838;2.402;2022-10-17T11:15:02;13.80;;;6.70;;
65853;SDS011;52627;48.838;2.402;2022-10-17T11:17:39;12.70;;;6.80;;
65853;SDS011;52627;48.838;2.402;2022-10-17T11:23:18;10.60;;;6.60;;
65853;SDS011;52627;48.838;2.402;2022-10-17T11:25:51;14.60;;;6.50;;
65853;SDS011;52627;48.838;2.402;2022-10-17T11:28:22;11.60;;;6.40;;
65853;SDS011;52627;48.838;2.402;2022-10-17T11:31:11;10.60;;;5.90;;
65853;SDS011;52627;48.838;2.402;2022-10-17T11:33:48;11.60;;;6.20;;
65853;SDS011;52627;48.838;2.402;2022-10-17T11:36:27;12.10;;;6.40;;
65853;SDS011;52627;48.838;2.402;2022-10-17T11:42:40;13.30;;;7.50;;
65853;SDS011;52627;48.838;2.402;2022-10-17T11:45:18;11.80;;;6.40;;
65853;SDS011;52627;48.838;2.402;2022-10-17T11:47:59;9.60;;;6.50;;
65853;SDS011;52627;48.838;2.402;2022-10-17T11:50:32;13.10;;;8.10;;
65853;SDS011;52627;48.838;2.402;2022-10-17T11:53:24;14.30;;;6.80;;
65853;SDS011;52627;48.838;2.402;2022-10-17T11:55:54;13.20;;;7.10;;
65853;SDS011;52627;48.838;2.402;2022-10-17T11:58:51;12.60;;;6.80;;
65853;SDS011;52627;48.838;2.402;2022-10-17T12:01:55;12.30;;;6.90;;
65853;SDS011;52627;48.838;2.402;2022-10-17T12:07:43;11.40;;;6.70;;
65853;SDS011;52627;48.838;2.402;2022-10-17T12:10:29;10.30;;;6.00;;
65853;SDS011;52627;48.838;2.402;2022-10-17T12:15:54;11.10;;;6.90;;
65853;SDS011;52627;48.838;2.402;2022-10-17T12:18:24;10.30;;;6.50;;
65853;SDS011;52627;48.838;2.402;2022-10-17T12:20:57;12.30;;;6.60;;
65853;SDS011;52627;48.838;2.402;2022-10-17T12:23:27;10.70;;;6.40;;
65853;SDS011;52627;48.838;2.402;2022-10-17T12:26:05;12.80;;;6.20;;
65853;SDS011;52627;48.838;2.402;2022-10-17T12:28:47;11.10;;;6.60;;
65853;SDS011;52627;48.838;2.402;2022-10-17T12:55:10;8.90;;;5.90;;
65853;SDS011;52627;48.838;2.402;2022-10-17T12:58:02;8.70;;;5.70;;
65853;SDS011;52627;48.838;2.402;2022-10-17T13:00:41;11.30;;;6.00;;
65853;SDS011;52627;48.838;2.402;2022-10-17T13:03:32;8.40;;;5.60;;
65853;SDS011;52627;48.838;2.402;2022-10-17T13:06:04;9.60;;;6.30;;
65853;SDS011;52627;48.838;2.402;2022-10-17T13:08:37;10.50;;;5.60;;
65853;SDS011;52627;48.838;2.402;2022-10-17T13:11:06;10.40;;;6.30;;
65853;SDS011;52627;48.838;2.402;2022-10-17T13:13:40;12.00;;;6.40;;
65853;SDS011;52627;48.838;2.402;2022-10-17T13:16:26;9.00;;;6.70;;
65853;SDS011;52627;48.838;2.402;2022-10-17T13:19:10;9.10;;;6.10;;
65853;SDS011;52627;48.838;2.402;2022-10-17T13:21:52;11.40;;;6.80;;
65853;SDS011;52627;48.838;2.402;2022-10-17T13:27:05;10.20;;;6.30;;
65853;SDS011;52627;48.838;2.402;2022-10-17T13:29:47;15.70;;;7.50;;
65853;SDS011;52627;48.838;2.402;2022-10-17T13:32:14;12.80;;;7.60;;
65853;SDS011;52627;48.838;2.402;2022-10-17T13:34:42;10.60;;;7.30;;
65853;SDS011;52627;48.838;2.402;2022-10-17T13:37:13;10.60;;;7.50;;
65853;SDS011;52627;48.838;2.402;2022-10-17T13:39:43;12.40;;;7.30;;
65853;SDS011;52627;48.838;2.402;2022-10-17T13:42:26;12.60;;;7.60;;
65853;SDS011;52627;48.838;2.402;2022-10-17T13:44:56;14.90;;;7.40;;
65853;SDS011;52627;48.838;2.402;2022-10-17T13:47:28;12.80;;;7.30;;
65853;SDS011;52627;48.838;2.402;2022-10-17T13:49:58;12.80;;;7.00;;
65853;SDS011;52627;48.838;2.402;2022-10-17T13:52:28;12.10;;;7.10;;
65853;SDS011;52627;48.838;2.402;2022-10-17T13:55:08;13.20;;;7.20;;
65853;SDS011;52627;48.838;2.402;2022-10-17T13:57:43;13.30;;;7.40;;
65853;SDS011;52627;48.838;2.402;2022-10-17T14:00:20;12.40;;;7.50;;
65853;SDS011;52627;48.838;2.402;2022-10-17T14:02:48;14.60;;;6.50;;
65853;SDS011;52627;48.838;2.402;2022-10-17T14:05:18;12.90;;;6.60;;
65853;SDS011;52627;48.838;2.402;2022-10-17T14:07:54;7.80;;;6.10;;
65853;SDS011;52627;48.838;2.402;2022-10-17T14:10:40;10.10;;;6.30;;
65853;SDS011;52627;48.838;2.402;2022-10-17T14:13:20;13.10;;;6.40;;
65853;SDS011;52627;48.838;2.402;2022-10-17T14:15:50;9.60;;;6.20;;
65853;SDS011;52627;48.838;2.402;2022-10-17T14:18:23;9.90;;;5.80;;
65853;SDS011;52627;48.838;2.402;2022-10-17T14:20:52;11.50;;;5.60;;
65853;SDS011;52627;48.838;2.402;2022-10-17T14:23:43;8.70;;;5.80;;
65853;SDS011;52627;48.838;2.402;2022-10-17T14:26:22;10.00;;;5.80;;
65853;SDS011;52627;48.838;2.402;2022-10-17T14:29:21;11.10;;;5.20;;
65853;SDS011;52627;48.838;2.402;2022-10-17T14:32:04;11.20;;;6.40;;
65853;SDS011;52627;48.838;2.402;2022-10-17T14:34:36;9.10;;;5.60;;
65853;SDS011;52627;48.838;2.402;2022-10-17T14:37:30;12.20;;;6.10;;
65853;SDS011;52627;48.838;2.402;2022-10-17T14:40:03;10.10;;;5.80;;
65853;SDS011;52627;48.838;2.402;2022-10-17T14:42:37;13.00;;;6.30;;
65853;SDS011;52627;48.838;2.402;2022-10-17T14:45:08;11.40;;;5.90;;
65853;SDS011;52627;48.838;2.402;2022-10-17T14:47:39;10.90;;;6.00;;
65853;SDS011;52627;48.838;2.402;2022-10-17T14:52:38;10.50;;;5.40;;
65853;SDS011;52627;48.838;2.402;2022-10-17T14:55:33;8.00;;;5.30;;
65853;SDS011;52627;48.838;2.402;2022-10-17T14:58:15;9.10;;;5.90;;
65853;SDS011;52627;48.838;2.402;2022-10-17T15:00:43;11.60;;;5.70;;
65853;SDS011;52627;48.838;2.402;2022-10-17T15:03:11;10.00;;;5.40;;
65853;SDS011;52627;48.838;2.402;2022-10-17T15:05:39;7.70;;;5.00;;
65853;SDS011;52627;48.838;2.402;2022-10-17T15:08:12;10.40;;;5.30;;
65853;SDS011;52627;48.838;2.402;2022-10-17T15:10:41;8.30;;;4.80;;
65853;SDS011;52627;48.838;2.402;2022-10-17T15:13:10;9.40;;;5.20;;
65853;SDS011;52627;48.838;2.402;2022-10-17T15:15:57;10.90;;;5.50;;
65853;SDS011;52627;48.838;2.402;2022-10-17T15:18:24;9.00;;;5.20;;
65853;SDS011;52627;48.838;2.402;2022-10-17T15:20:51;13.40;;;5.70;;
65853;SDS011;52627;48.838;2.402;2022-10-17T15:23:32;12.20;;;5.60;;
65853;SDS011;52627;48.838;2.402;2022-10-17T15:26:00;8.40;;;5.00;;
65853;SDS011;52627;48.838;2.402;2022-10-17T15:28:27;12.20;;;5.90;;
65853;SDS011;52627;48.838;2.402;2022-10-17T15:30:55;13.80;;;7.90;;
65853;SDS011;52627;48.838;2.402;2022-10-17T15:33:22;14.90;;;9.40;;
65853;SDS011;52627;48.838;2.402;2022-10-17T15:35:50;11.80;;;7.60;;
65853;SDS011;52627;48.838;2.402;2022-10-17T15:38:18;10.50;;;6.50;;
65853;SDS011;52627;48.838;2.402;2022-10-17T15:40:45;12.20;;;6.60;;
65853;SDS011;52627;48.838;2.402;2022-10-17T15:43:16;14.60;;;7.00;;
65853;SDS011;52627;48.838;2.402;2022-10-17T15:45:46;9.50;;;6.00;;
65853;SDS011;52627;48.838;2.402;2022-10-17T15:48:26;9.40;;;5.80;;
65853;SDS011;52627;48.838;2.402;2022-10-17T15:50:54;10.90;;;5.90;;
65853;SDS011;52627;48.838;2.402;2022-10-17T15:53:22;10.70;;;6.20;;
65853;SDS011;52627;48.838;2.402;2022-10-17T15:55:50;11.20;;;6.20;;
65853;SDS011;52627;48.838;2.402;2022-10-17T15:58:18;12.40;;;6.40;;
65853;SDS011;52627;48.838;2.402;2022-10-17T16:00:46;9.40;;;6.00;;
65853;SDS011;52627;48.838;2.402;2022-10-17T16:03:13;10.40;;;6.10;;
65853;SDS011;52627;48.838;2.402;2022-10-17T16:05:41;11.10;;;6.80;;
65853;SDS011;52627;48.838;2.402;2022-10-17T16:08:08;12.90;;;7.70;;
65853;SDS011;52627;48.838;2.402;2022-10-17T16:10:38;13.40;;;6.70;;
65853;SDS011;52627;48.838;2.402;2022-10-17T16:13:11;12.50;;;7.00;;
65853;SDS011;52627;48.838;2.402;2022-10-17T16:15:45;13.30;;;7.50;;
65853;SDS011;52627;48.838;2.402;2022-10-17T16:18:13;10.30;;;6.70;;
65853;SDS011;52627;48.838;2.402;2022-10-17T16:20:42;13.50;;;7.90;;
65853;SDS011;52627;48.838;2.402;2022-10-17T16:23:11;16.30;;;10.20;;
65853;SDS011;52627;48.838;2.402;2022-10-17T16:25:39;15.60;;;8.80;;
65853;SDS011;52627;48.838;2.402;2022-10-17T16:28:07;13.40;;;7.70;;
65853;SDS011;52627;48.838;2.402;2022-10-17T16:30:40;19.30;;;10.90;;
65853;SDS011;52627;48.838;2.402;2022-10-17T16:33:11;14.40;;;9.70;;
65853;SDS011;52627;48.838;2.402;2022-10-17T16:35:38;17.70;;;10.20;;
65853;SDS011;52627;48.838;2.402;2022-10-17T16:38:06;14.70;;;8.90;;
65853;SDS011;52627;48.838;2.402;2022-10-17T16:40:36;12.70;;;7.30;;
65853;SDS011;52627;48.838;2.402;2022-10-17T16:43:06;10.70;;;6.30;;
65853;SDS011;52627;48.838;2.402;2022-10-17T16:45:34;12.80;;;7.40;;
65853;SDS011;52627;48.838;2.402;2022-10-17T16:48:02;12.00;;;6.60;;
65853;SDS011;52627;48.838;2.402;2022-10-17T16:50:30;11.90;;;6.80;;
65853;SDS011;52627;48.838;2.402;2022-10-17T16:55:30;10.00;;;6.40;;
65853;SDS011;52627;48.838;2.402;2022-10-17T16:57:57;12.70;;;6.70;;
65853;SDS011;52627;48.838;2.402;2022-10-17T17:00:26;14.10;;;7.10;;
65853;SDS011;52627;48.838;2.402;2022-10-17T17:02:53;12.90;;;6.30;;
65853;SDS011;52627;48.838;2.402;2022-10-17T17:05:20;11.20;;;6.50;;
65853;SDS011;52627;48.838;2.402;2022-10-17T17:07:48;14.60;;;7.00;;
65853;SDS011;52627;48.838;2.402;2022-10-17T17:10:15;12.60;;;7.20;;
65853;SDS011;52627;48.838;2.402;2022-10-17T17:12:42;13.20;;;7.60;;
65853;SDS011;52627;48.838;2.402;2022-10-17T17:15:10;10.20;;;6.70;;
65853;SDS011;52627;48.838;2.402;2022-10-17T17:17:37;10.90;;;7.50;;